PWSweather.com
Personal Weather Stations
Station Observations

ChardChardGB

Lat: 50.877408, Lon: -2.94964741

Elevation: 341

Station Type: WS3083

http://www.merriott-astro.co.uk/weather/index.htm

Latest ConditionsUpdated 6:40:06 PM GMT Friday, Jul 28, 2017
Currently Today's Max Today's Min Today's Average
Temperature 61.2°F16.2°C 66.9°F19.4°C 55.9°F13.3°C 61.3°F16.3°C
Dew Point 59.4°F15.2°C 59.4°F15.2°C 47.4°F8.6°C 53.8°F12.1°C
Winds 14.1 mph S22.7 kmh S 16.0 mph S25.7 kmh S - 7.8 mph 12.6 kmh
Wind Gusts 20.6 mph33.2 kmh 24.4 mph39.3 kmh - -
Humidity 94% 94% 63% 77%
Pressure 29.40 in995.6 mb 29.50 in999.0 mb 29.39 in995.3 mb -
Precipitation - 0.01 in0.3 mm - -
Hour Temp Dew Point Humidity Winds Wind Gusts Pressure Precip Precip Rate Daily Precip Total
06:40 PM 61.2°F16.2°C 59.4°F15.2°C 94% 14.1 mph S22.7 kmh S 20.6 mph33.2 kmh 29.40 in995.6 mb 0.00 in0.0 mm 0.00 in0.0 mm 0.01 in0.3 mm
06:30 PM 61.0°F16.1°C 59.3°F15.2°C 94% 12.5 mph S20.1 kmh S 17.4 mph28.0 kmh 29.40 in995.6 mb 0.00 in0.0 mm 0.00 in0.0 mm 0.01 in0.3 mm
06:20 PM 61.2°F16.2°C 59.1°F15.1°C 93% 11.4 mph SW18.3 kmh SW 19.7 mph31.7 kmh 29.40 in995.6 mb 0.00 in0.0 mm 0.00 in0.0 mm 0.01 in0.3 mm
06:10 PM 61.2°F16.2°C 59.1°F15.1°C 93% 12.8 mph SW20.6 kmh SW 15.2 mph24.5 kmh 29.39 in995.3 mb 0.00 in0.0 mm 0.00 in0.0 mm 0.01 in0.3 mm
06:00 PM 61.2°F16.2°C 59.1°F15.1°C 93% 15.4 mph S24.8 kmh S 18.3 mph29.5 kmh 29.40 in995.6 mb 0.00 in0.0 mm 0.00 in0.0 mm 0.01 in0.3 mm
05:50 PM 61.2°F16.2°C 58.8°F14.9°C 92% 12.8 mph S20.6 kmh S 21.3 mph34.3 kmh 29.40 in995.6 mb 0.00 in0.0 mm 0.00 in0.0 mm 0.01 in0.3 mm
05:40 PM 61.3°F16.3°C 58.7°F14.8°C 91% 13.2 mph S21.2 kmh S 19.0 mph30.6 kmh 29.40 in995.6 mb 0.00 in0.0 mm 0.00 in0.0 mm 0.01 in0.3 mm
05:30 PM 61.3°F16.3°C 58.4°F14.7°C 90% 16.0 mph S25.7 kmh S 22.1 mph35.6 kmh 29.40 in995.6 mb 0.00 in0.0 mm 0.00 in0.0 mm 0.01 in0.3 mm
05:20 PM 61.3°F16.3°C 58.4°F14.7°C 90% 15.4 mph S24.8 kmh S 22.1 mph35.6 kmh 29.40 in995.6 mb 0.00 in0.0 mm 0.00 in0.0 mm 0.01 in0.3 mm
05:10 PM 61.5°F16.4°C 58.3°F14.6°C 89% 13.7 mph S22.0 kmh S 18.3 mph29.5 kmh 29.41 in995.9 mb 0.01 in0.3 mm 0.00 in0.0 mm 0.01 in0.3 mm
05:00 PM 61.5°F16.4°C 58.3°F14.6°C 89% 13.8 mph SSW22.2 kmh SSW 19.0 mph30.6 kmh 29.42 in996.3 mb 0.01 in0.3 mm 0.00 in0.0 mm 0.01 in0.3 mm
04:50 PM 61.7°F16.5°C 58.4°F14.7°C 89% 12.0 mph S19.3 kmh S 19.7 mph31.7 kmh 29.43 in996.6 mb 0.01 in0.3 mm 0.00 in0.0 mm 0.01 in0.3 mm
04:40 PM 61.9°F16.6°C 58.9°F14.9°C 90% 11.4 mph S18.3 kmh S 19.7 mph31.7 kmh 29.43 in996.6 mb 0.01 in0.3 mm 0.00 in0.0 mm 0.01 in0.3 mm
04:30 PM 61.7°F16.5°C 58.8°F14.9°C 90% 15.1 mph S24.3 kmh S 20.6 mph33.2 kmh 29.44 in997.0 mb 0.01 in0.3 mm 0.00 in0.0 mm 0.01 in0.3 mm
04:20 PM 61.7°F16.5°C 58.1°F14.5°C 88% 12.1 mph S19.5 kmh S 24.4 mph39.3 kmh 29.44 in997.0 mb 0.01 in0.3 mm 0.06 in1.5 mm 0.01 in0.3 mm
04:10 PM 62.1°F16.7°C 57.8°F14.3°C 86% 12.9 mph SSE20.8 kmh SSE 20.6 mph33.2 kmh 29.43 in996.6 mb 0.00 in0.0 mm 0.00 in0.0 mm 0.00 in0.0 mm
04:00 PM 62.1°F16.7°C 57.2°F14.0°C 84% 13.5 mph S21.7 kmh S 19.7 mph31.7 kmh 29.44 in997.0 mb 0.00 in0.0 mm 0.00 in0.0 mm 0.00 in0.0 mm
03:50 PM 62.2°F16.8°C 57.0°F13.9°C 83% 14.2 mph SSE22.9 kmh SSE 19.7 mph31.7 kmh 29.45 in997.3 mb 0.00 in0.0 mm 0.00 in0.0 mm 0.00 in0.0 mm
03:40 PM 62.4°F16.9°C 57.2°F14.0°C 83% 12.5 mph S20.1 kmh S 21.3 mph34.3 kmh 29.45 in997.3 mb 0.00 in0.0 mm 0.00 in0.0 mm 0.00 in0.0 mm
03:30 PM 62.6°F17.0°C 56.7°F13.7°C 81% 15.4 mph SSW24.8 kmh SSW 21.3 mph34.3 kmh 29.45 in997.3 mb 0.00 in0.0 mm 0.00 in0.0 mm 0.00 in0.0 mm
03:20 PM 64.4°F18.0°C 56.0°F13.3°C 74% 11.9 mph SE19.2 kmh SE 20.6 mph33.2 kmh 29.45 in997.3 mb 0.00 in0.0 mm 0.00 in0.0 mm 0.00 in0.0 mm
03:10 PM 65.5°F18.6°C 56.2°F13.4°C 72% 13.0 mph S20.9 kmh S 16.8 mph27.0 kmh 29.45 in997.3 mb 0.00 in0.0 mm 0.00 in0.0 mm 0.00 in0.0 mm
03:00 PM 64.6°F18.1°C 55.7°F13.2°C 73% 14.4 mph S23.2 kmh S 17.4 mph28.0 kmh 29.45 in997.3 mb 0.00 in0.0 mm 0.00 in0.0 mm 0.00 in0.0 mm
02:50 PM 64.9°F18.3°C 55.3°F12.9°C 71% 15.0 mph S24.1 kmh S 21.3 mph34.3 kmh 29.45 in997.3 mb 0.00 in0.0 mm 0.00 in0.0 mm 0.00 in0.0 mm
02:40 PM 65.3°F18.5°C 55.7°F13.2°C 71% 12.5 mph SW20.1 kmh SW 19.7 mph31.7 kmh 29.46 in997.6 mb 0.00 in0.0 mm 0.00 in0.0 mm 0.00 in0.0 mm
02:30 PM 65.7°F18.7°C 56.0°F13.3°C 71% 12.4 mph S20.0 kmh S 15.2 mph24.5 kmh 29.46 in997.6 mb 0.00 in0.0 mm 0.00 in0.0 mm 0.00 in0.0 mm
02:20 PM 64.8°F18.2°C 55.2°F12.9°C 71% 11.3 mph S18.2 kmh S 17.4 mph28.0 kmh 29.46 in997.6 mb 0.00 in0.0 mm 0.00 in0.0 mm 0.00 in0.0 mm
02:10 PM 65.1°F18.4°C 55.5°F13.1°C 71% 10.6 mph S17.1 kmh S 13.6 mph21.9 kmh 29.46 in997.6 mb 0.00 in0.0 mm 0.00 in0.0 mm 0.00 in0.0 mm
02:00 PM 64.2°F17.9°C 55.4°F13.0°C 73% 11.7 mph S18.8 kmh S 13.6 mph21.9 kmh 29.46 in997.6 mb 0.00 in0.0 mm 0.00 in0.0 mm 0.00 in0.0 mm
01:50 PM 64.0°F17.8°C 56.0°F13.3°C 75% 8.9 mph S14.3 kmh S 12.1 mph19.5 kmh 29.47 in998.0 mb 0.00 in0.0 mm 0.00 in0.0 mm 0.00 in0.0 mm
01:40 PM 63.5°F17.5°C 56.5°F13.6°C 78% 9.9 mph SSW15.9 kmh SSW 15.9 mph25.6 kmh 29.47 in998.0 mb 0.00 in0.0 mm 0.00 in0.0 mm 0.00 in0.0 mm
01:30 PM 63.1°F17.3°C 57.2°F14.0°C 81% 10.3 mph S16.6 kmh S 15.2 mph24.5 kmh 29.47 in998.0 mb 0.00 in0.0 mm 0.00 in0.0 mm 0.00 in0.0 mm
01:20 PM 64.8°F18.2°C 55.2°F12.9°C 71% 10.6 mph SSE17.1 kmh SSE 15.2 mph24.5 kmh 29.48 in998.3 mb 0.00 in0.0 mm 0.00 in0.0 mm 0.00 in0.0 mm
01:10 PM 66.9°F19.4°C 56.8°F13.8°C 70% 10.0 mph SSW16.1 kmh SSW 15.2 mph24.5 kmh 29.47 in998.0 mb 0.00 in0.0 mm 0.00 in0.0 mm 0.00 in0.0 mm
01:00 PM 65.7°F18.7°C 56.8°F13.8°C 73% 8.5 mph S13.7 kmh S 15.2 mph24.5 kmh 29.48 in998.3 mb 0.00 in0.0 mm 0.00 in0.0 mm 0.00 in0.0 mm
12:50 PM 63.9°F17.7°C 55.8°F13.2°C 75% 9.4 mph S15.1 kmh S 13.0 mph20.9 kmh 29.49 in998.6 mb 0.00 in0.0 mm 0.00 in0.0 mm 0.00 in0.0 mm
12:40 PM 63.5°F17.5°C 55.1°F12.8°C 74% 10.4 mph SE16.7 kmh SE 15.2 mph24.5 kmh 29.48 in998.3 mb 0.00 in0.0 mm 0.00 in0.0 mm 0.00 in0.0 mm
12:30 PM 63.5°F17.5°C 54.7°F12.6°C 73% 10.4 mph S16.7 kmh S 15.9 mph25.6 kmh 29.48 in998.3 mb 0.00 in0.0 mm 0.00 in0.0 mm 0.00 in0.0 mm
12:20 PM 63.5°F17.5°C 54.3°F12.4°C 72% 9.6 mph S15.4 kmh S 14.5 mph23.3 kmh 29.49 in998.6 mb 0.00 in0.0 mm 0.00 in0.0 mm 0.00 in0.0 mm
12:10 PM 63.3°F17.4°C 56.0°F13.3°C 77% 8.6 mph S13.8 kmh S 11.4 mph18.3 kmh 29.49 in998.6 mb 0.00 in0.0 mm 0.00 in0.0 mm 0.00 in0.0 mm
12:00 PM 63.0°F17.2°C 56.0°F13.3°C 78% 7.2 mph SE11.6 kmh SE 13.6 mph21.9 kmh 29.48 in998.3 mb 0.00 in0.0 mm 0.00 in0.0 mm 0.00 in0.0 mm
11:50 AM 62.2°F16.8°C 55.7°F13.2°C 79% 10.3 mph S16.6 kmh S 13.6 mph21.9 kmh 29.49 in998.6 mb 0.00 in0.0 mm 0.00 in0.0 mm 0.00 in0.0 mm
11:40 AM 61.9°F16.6°C 55.7°F13.2°C 80% 9.3 mph S15.0 kmh S 15.9 mph25.6 kmh 29.48 in998.3 mb 0.00 in0.0 mm 0.00 in0.0 mm 0.00 in0.0 mm
11:30 AM 62.1°F16.7°C 55.8°F13.2°C 80% 8.0 mph SSW12.9 kmh SSW 12.1 mph19.5 kmh 29.48 in998.3 mb 0.00 in0.0 mm 0.00 in0.0 mm 0.00 in0.0 mm
11:20 AM 62.1°F16.7°C 55.8°F13.2°C 80% 8.4 mph S13.5 kmh S 13.6 mph21.9 kmh 29.49 in998.6 mb 0.00 in0.0 mm 0.00 in0.0 mm 0.00 in0.0 mm
11:10 AM 62.6°F17.0°C 55.7°F13.2°C 78% 9.5 mph S15.3 kmh S 13.0 mph20.9 kmh 29.48 in998.3 mb 0.00 in0.0 mm 0.00 in0.0 mm 0.00 in0.0 mm
11:00 AM 63.5°F17.5°C 54.7°F12.6°C 73% 9.9 mph S15.9 kmh S 13.6 mph21.9 kmh 29.48 in998.3 mb 0.00 in0.0 mm 0.00 in0.0 mm 0.00 in0.0 mm
10:50 AM 64.4°F18.0°C 54.8°F12.7°C 71% 8.9 mph SSE14.3 kmh SSE 15.9 mph25.6 kmh 29.49 in998.6 mb 0.00 in0.0 mm 0.00 in0.0 mm 0.00 in0.0 mm
10:40 AM 64.2°F17.9°C 54.2°F12.3°C 70% 11.3 mph S18.2 kmh S 15.2 mph24.5 kmh 29.48 in998.3 mb 0.00 in0.0 mm 0.00 in0.0 mm 0.00 in0.0 mm
10:30 AM 65.1°F18.4°C 54.3°F12.4°C 68% 9.0 mph SSW14.5 kmh SSW 11.4 mph18.3 kmh 29.47 in998.0 mb 0.00 in0.0 mm 0.00 in0.0 mm 0.00 in0.0 mm
10:20 AM 65.3°F18.5°C 53.7°F12.1°C 66% 6.8 mph SSW10.9 kmh SSW 10.7 mph17.2 kmh 29.47 in998.0 mb 0.00 in0.0 mm 0.00 in0.0 mm 0.00 in0.0 mm
10:10 AM 65.7°F18.7°C 54.4°F12.4°C 67% 8.0 mph S12.9 kmh S 12.1 mph19.5 kmh 29.48 in998.3 mb 0.00 in0.0 mm 0.00 in0.0 mm 0.00 in0.0 mm
10:00 AM 65.7°F18.7°C 54.4°F12.4°C 67% 8.9 mph SSE14.3 kmh SSE 15.2 mph24.5 kmh 29.49 in998.6 mb 0.00 in0.0 mm 0.00 in0.0 mm 0.00 in0.0 mm
09:50 AM 65.7°F18.7°C 54.0°F12.2°C 66% 8.2 mph S13.2 kmh S 12.1 mph19.5 kmh 29.49 in998.6 mb 0.00 in0.0 mm 0.00 in0.0 mm 0.00 in0.0 mm
09:40 AM 66.0°F18.9°C 53.9°F12.2°C 65% 7.9 mph SSE12.7 kmh SSE 13.6 mph21.9 kmh 29.48 in998.3 mb 0.00 in0.0 mm 0.00 in0.0 mm 0.00 in0.0 mm
09:30 AM 66.9°F19.4°C 54.4°F12.4°C 64% 5.9 mph S9.5 kmh S 9.2 mph14.8 kmh 29.49 in998.6 mb 0.00 in0.0 mm 0.00 in0.0 mm 0.00 in0.0 mm
09:20 AM 66.9°F19.4°C 53.9°F12.2°C 63% 7.7 mph SW12.4 kmh SW 12.1 mph19.5 kmh 29.49 in998.6 mb 0.00 in0.0 mm 0.00 in0.0 mm 0.00 in0.0 mm
09:10 AM 66.4°F19.1°C 54.3°F12.4°C 65% 7.2 mph SSW11.6 kmh SSW 10.7 mph17.2 kmh 29.49 in998.6 mb 0.00 in0.0 mm 0.00 in0.0 mm 0.00 in0.0 mm
09:00 AM 66.0°F18.9°C 54.4°F12.4°C 66% 7.4 mph S11.9 kmh S 13.6 mph21.9 kmh 29.49 in998.6 mb 0.00 in0.0 mm 0.00 in0.0 mm 0.00 in0.0 mm
08:50 AM 64.6°F18.1°C 53.0°F11.7°C 66% 7.6 mph SE12.2 kmh SE 13.0 mph20.9 kmh 29.49 in998.6 mb 0.00 in0.0 mm 0.00 in0.0 mm 0.00 in0.0 mm
08:40 AM 63.9°F17.7°C 52.7°F11.5°C 67% 6.8 mph SSW10.9 kmh SSW 9.2 mph14.8 kmh 29.49 in998.6 mb 0.00 in0.0 mm 0.00 in0.0 mm 0.00 in0.0 mm
08:30 AM 63.3°F17.4°C 53.4°F11.9°C 70% 6.3 mph SSW10.1 kmh SSW 9.2 mph14.8 kmh 29.49 in998.6 mb 0.00 in0.0 mm 0.00 in0.0 mm 0.00 in0.0 mm
08:20 AM 63.5°F17.5°C 52.0°F11.1°C 66% 3.4 mph S5.5 kmh S 5.4 mph8.7 kmh 29.50 in999.0 mb 0.00 in0.0 mm 0.00 in0.0 mm 0.00 in0.0 mm
08:10 AM 63.0°F17.2°C 53.0°F11.7°C 70% 4.4 mph S7.1 kmh S 7.6 mph12.2 kmh 29.49 in998.6 mb 0.00 in0.0 mm 0.00 in0.0 mm 0.00 in0.0 mm
08:00 AM 62.4°F16.9°C 52.9°F11.6°C 71% 6.2 mph SSW10.0 kmh SSW 14.5 mph23.3 kmh 29.48 in998.3 mb 0.00 in0.0 mm 0.00 in0.0 mm 0.00 in0.0 mm
07:50 AM 61.9°F16.6°C 52.4°F11.3°C 71% 5.6 mph SSW9.0 kmh SSW 7.6 mph12.2 kmh 29.48 in998.3 mb 0.00 in0.0 mm 0.00 in0.0 mm 0.00 in0.0 mm
07:40 AM 61.5°F16.4°C 52.4°F11.3°C 72% 4.9 mph S7.9 kmh S 8.3 mph13.4 kmh 29.48 in998.3 mb 0.00 in0.0 mm 0.00 in0.0 mm 0.00 in0.0 mm
07:30 AM 61.5°F16.4°C 52.0°F11.1°C 71% 4.8 mph SSW7.7 kmh SSW 6.9 mph11.1 kmh 29.49 in998.6 mb 0.00 in0.0 mm 0.00 in0.0 mm 0.00 in0.0 mm
07:20 AM 61.5°F16.4°C 52.4°F11.3°C 72% 4.2 mph WSW6.8 kmh WSW 10.7 mph17.2 kmh 29.49 in998.6 mb 0.00 in0.0 mm 0.00 in0.0 mm 0.00 in0.0 mm
07:10 AM 61.3°F16.3°C 52.3°F11.3°C 72% 4.6 mph SSW7.4 kmh SSW 9.8 mph15.8 kmh 29.48 in998.3 mb 0.00 in0.0 mm 0.00 in0.0 mm 0.00 in0.0 mm
07:00 AM 61.2°F16.2°C 52.5°F11.4°C 73% 3.5 mph S5.6 kmh S 7.6 mph12.2 kmh 29.47 in998.0 mb 0.00 in0.0 mm 0.00 in0.0 mm 0.00 in0.0 mm
06:50 AM 61.2°F16.2°C 52.8°F11.6°C 74% 4.9 mph S7.9 kmh S 9.2 mph14.8 kmh 29.47 in998.0 mb 0.00 in0.0 mm 0.00 in0.0 mm 0.00 in0.0 mm
06:40 AM 61.2°F16.2°C 53.2°F11.8°C 75% 4.8 mph S7.7 kmh S 9.8 mph15.8 kmh 29.46 in997.6 mb 0.00 in0.0 mm 0.00 in0.0 mm 0.00 in0.0 mm
06:30 AM 61.2°F16.2°C 54.3°F12.4°C 78% 2.5 mph SW4.0 kmh SW 6.0 mph9.7 kmh 29.46 in997.6 mb 0.00 in0.0 mm 0.00 in0.0 mm 0.00 in0.0 mm
06:20 AM 59.9°F15.5°C 53.4°F11.9°C 79% 1.7 mph SW2.7 kmh SW 4.5 mph7.2 kmh 29.46 in997.6 mb 0.00 in0.0 mm 0.00 in0.0 mm 0.00 in0.0 mm
06:10 AM 59.7°F15.4°C 53.2°F11.8°C 79% 3.5 mph S5.6 kmh S 7.6 mph12.2 kmh 29.46 in997.6 mb 0.00 in0.0 mm 0.00 in0.0 mm 0.00 in0.0 mm
06:00 AM 59.5°F15.3°C 53.4°F11.9°C 80% 3.6 mph SW5.8 kmh SW 7.6 mph12.2 kmh 29.47 in998.0 mb 0.00 in0.0 mm 0.00 in0.0 mm 0.00 in0.0 mm
05:50 AM 59.2°F15.1°C 53.0°F11.7°C 80% 5.4 mph SSW8.7 kmh SSW 9.8 mph15.8 kmh 29.47 in998.0 mb 0.00 in0.0 mm 0.00 in0.0 mm 0.00 in0.0 mm
05:40 AM 59.2°F15.1°C 53.4°F11.9°C 81% 4.6 mph SSE7.4 kmh SSE 7.6 mph12.2 kmh 29.46 in997.6 mb 0.00 in0.0 mm 0.00 in0.0 mm 0.00 in0.0 mm
05:30 AM 59.0°F15.0°C 53.2°F11.8°C 81% 4.3 mph SSW6.9 kmh SSW 7.6 mph12.2 kmh 29.46 in997.6 mb 0.00 in0.0 mm 0.00 in0.0 mm 0.00 in0.0 mm
05:20 AM 58.6°F14.8°C 53.2°F11.8°C 82% 3.0 mph SW4.8 kmh SW 4.5 mph7.2 kmh 29.46 in997.6 mb 0.00 in0.0 mm 0.00 in0.0 mm 0.00 in0.0 mm
05:10 AM 58.3°F14.6°C 52.8°F11.6°C 82% 2.6 mph SW4.2 kmh SW 6.0 mph9.7 kmh 29.47 in998.0 mb 0.00 in0.0 mm 0.00 in0.0 mm 0.00 in0.0 mm
05:00 AM 57.9°F14.4°C 52.8°F11.6°C 83% 3.5 mph SW5.6 kmh SW 6.0 mph9.7 kmh 29.46 in997.6 mb 0.00 in0.0 mm 0.00 in0.0 mm 0.00 in0.0 mm
04:50 AM 57.7°F14.3°C 52.6°F11.4°C 83% 2.9 mph SW4.7 kmh SW 4.5 mph7.2 kmh 29.46 in997.6 mb 0.00 in0.0 mm 0.00 in0.0 mm 0.00 in0.0 mm
04:40 AM 57.6°F14.2°C 52.4°F11.3°C 83% 3.2 mph SSW5.1 kmh SSW 6.0 mph9.7 kmh 29.46 in997.6 mb 0.00 in0.0 mm 0.00 in0.0 mm 0.00 in0.0 mm
04:30 AM 57.6°F14.2°C 52.1°F11.2°C 82% 4.0 mph SW6.4 kmh SW 6.0 mph9.7 kmh 29.46 in997.6 mb 0.00 in0.0 mm 0.00 in0.0 mm 0.00 in0.0 mm
04:20 AM 57.9°F14.4°C 51.8°F11.0°C 80% 4.6 mph SSW7.4 kmh SSW 6.9 mph11.1 kmh 29.46 in997.6 mb 0.00 in0.0 mm 0.00 in0.0 mm 0.00 in0.0 mm
04:10 AM 58.3°F14.6°C 51.5°F10.8°C 78% 1.6 mph WSW2.6 kmh WSW 7.6 mph12.2 kmh 29.46 in997.6 mb 0.00 in0.0 mm 0.00 in0.0 mm 0.00 in0.0 mm
04:00 AM 58.3°F14.6°C 51.5°F10.8°C 78% 6.1 mph S9.8 kmh S 9.8 mph15.8 kmh 29.46 in997.6 mb 0.00 in0.0 mm 0.00 in0.0 mm 0.00 in0.0 mm
03:50 AM 58.1°F14.5°C 51.6°F10.9°C 79% 5.3 mph S8.5 kmh S 6.9 mph11.1 kmh 29.45 in997.3 mb 0.00 in0.0 mm 0.00 in0.0 mm 0.00 in0.0 mm
03:40 AM 57.9°F14.4°C 51.5°F10.8°C 79% 5.4 mph S8.7 kmh S 7.6 mph12.2 kmh 29.45 in997.3 mb 0.00 in0.0 mm 0.00 in0.0 mm 0.00 in0.0 mm
03:30 AM 57.6°F14.2°C 51.1°F10.6°C 79% 4.1 mph SSW6.6 kmh SSW 7.6 mph12.2 kmh 29.45 in997.3 mb 0.00 in0.0 mm 0.00 in0.0 mm 0.00 in0.0 mm
03:20 AM 57.6°F14.2°C 51.1°F10.6°C 79% 5.8 mph S9.3 kmh S 10.7 mph17.2 kmh 29.45 in997.3 mb 0.00 in0.0 mm 0.00 in0.0 mm 0.00 in0.0 mm
03:10 AM 57.4°F14.1°C 50.9°F10.5°C 79% 4.1 mph S6.6 kmh S 7.6 mph12.2 kmh 29.45 in997.3 mb 0.00 in0.0 mm 0.00 in0.0 mm 0.00 in0.0 mm
03:00 AM 57.2°F14.0°C 50.8°F10.4°C 79% 4.8 mph S7.7 kmh S 7.6 mph12.2 kmh 29.46 in997.6 mb 0.00 in0.0 mm 0.00 in0.0 mm 0.00 in0.0 mm
02:50 AM 56.8°F13.8°C 50.4°F10.2°C 79% 5.3 mph SSW8.5 kmh SSW 7.6 mph12.2 kmh 29.45 in997.3 mb 0.00 in0.0 mm 0.00 in0.0 mm 0.00 in0.0 mm
02:40 AM 56.7°F13.7°C 49.9°F9.9°C 78% 3.6 mph SE5.8 kmh SE 4.5 mph7.2 kmh 29.46 in997.6 mb 0.00 in0.0 mm 0.00 in0.0 mm 0.00 in0.0 mm
02:30 AM 56.7°F13.7°C 49.5°F9.7°C 77% 3.6 mph S5.8 kmh S 6.0 mph9.7 kmh 29.45 in997.3 mb 0.00 in0.0 mm 0.00 in0.0 mm 0.00 in0.0 mm
02:20 AM 56.7°F13.7°C 49.2°F9.6°C 76% 3.9 mph SE6.3 kmh SE 5.4 mph8.7 kmh 29.46 in997.6 mb 0.00 in0.0 mm 0.00 in0.0 mm 0.00 in0.0 mm
02:10 AM 56.7°F13.7°C 49.2°F9.6°C 76% 4.3 mph S6.9 kmh S 7.6 mph12.2 kmh 29.46 in997.6 mb 0.00 in0.0 mm 0.00 in0.0 mm 0.00 in0.0 mm
02:00 AM 56.7°F13.7°C 48.8°F9.3°C 75% 4.9 mph S7.9 kmh S 7.6 mph12.2 kmh 29.46 in997.6 mb 0.00 in0.0 mm 0.00 in0.0 mm 0.00 in0.0 mm
01:50 AM 56.5°F13.6°C 48.3°F9.1°C 74% 4.5 mph SSE7.2 kmh SSE 8.3 mph13.4 kmh 29.46 in997.6 mb 0.00 in0.0 mm 0.00 in0.0 mm 0.00 in0.0 mm
01:40 AM 56.5°F13.6°C 48.3°F9.1°C 74% 4.9 mph SSW7.9 kmh SSW 6.9 mph11.1 kmh 29.46 in997.6 mb 0.00 in0.0 mm 0.00 in0.0 mm 0.00 in0.0 mm
01:30 AM 56.3°F13.5°C 48.1°F8.9°C 74% 5.8 mph SSW9.3 kmh SSW 9.2 mph14.8 kmh 29.46 in997.6 mb 0.00 in0.0 mm 0.00 in0.0 mm 0.00 in0.0 mm
01:20 AM 56.1°F13.4°C 48.0°F8.9°C 74% 5.0 mph S8.0 kmh S 9.8 mph15.8 kmh 29.45 in997.3 mb 0.00 in0.0 mm 0.00 in0.0 mm 0.00 in0.0 mm
01:10 AM 55.9°F13.3°C 47.4°F8.6°C 73% 4.0 mph S6.4 kmh S 6.0 mph9.7 kmh 29.46 in997.6 mb 0.00 in0.0 mm 0.00 in0.0 mm 0.00 in0.0 mm
01:00 AM 56.1°F13.4°C 47.6°F8.7°C 73% 2.9 mph S4.7 kmh S 6.0 mph9.7 kmh 29.46 in997.6 mb 0.00 in0.0 mm 0.00 in0.0 mm 0.00 in0.0 mm
12:50 AM 56.3°F13.5°C 47.8°F8.8°C 73% 3.4 mph SSE5.5 kmh SSE 4.5 mph7.2 kmh 29.46 in997.6 mb 0.00 in0.0 mm 0.00 in0.0 mm 0.00 in0.0 mm
12:40 AM 56.5°F13.6°C 47.6°F8.7°C 72% 3.8 mph S6.1 kmh S 5.4 mph8.7 kmh 29.46 in997.6 mb 0.00 in0.0 mm 0.00 in0.0 mm 0.00 in0.0 mm
12:30 AM 56.8°F13.8°C 47.9°F8.8°C 72% 3.6 mph S5.8 kmh S 4.5 mph7.2 kmh 29.45 in997.3 mb 0.00 in0.0 mm 0.00 in0.0 mm 0.00 in0.0 mm
12:20 AM 57.0°F13.9°C 48.1°F8.9°C 72% 3.0 mph SW4.8 kmh SW 4.5 mph7.2 kmh 29.45 in997.3 mb 0.00 in0.0 mm 0.00 in0.0 mm 0.00 in0.0 mm
12:10 AM 57.4°F14.1°C 48.4°F9.1°C 72% 4.8 mph SSW7.7 kmh SSW 7.6 mph12.2 kmh 29.45 in997.3 mb 0.00 in0.0 mm 0.00 in0.0 mm 0.00 in0.0 mm
12:00 AM 57.4°F14.1°C 48.4°F9.1°C 72% 4.2 mph S6.8 kmh S 6.9 mph11.1 kmh 29.45 in997.3 mb 0.00 in0.0 mm 0.00 in0.0 mm 0.00 in0.0 mm